createdAt,value
2018-07-05T00:01:02.451Z,54.60
2018-07-05T00:03:47.535Z,54.40
2018-07-05T00:09:12.202Z,54.50
2018-07-05T00:11:57.515Z,54.70
2018-07-05T00:14:42.623Z,55.30
2018-07-05T00:17:27.658Z,55.30
2018-07-05T00:20:12.812Z,55.40
2018-07-05T00:22:58.062Z,55.30
2018-07-05T00:25:43.307Z,55.40
2018-07-05T00:28:28.447Z,54.80
2018-07-05T00:31:13.699Z,55.00
2018-07-05T00:33:58.816Z,55.00
2018-07-05T00:36:43.925Z,55.30
2018-07-05T00:39:29.239Z,55.70
2018-07-05T00:42:14.539Z,55.60
2018-07-05T00:44:59.666Z,55.60
2018-07-05T00:47:44.739Z,56.00
2018-07-05T00:50:29.820Z,55.70
2018-07-05T00:53:14.954Z,55.70
2018-07-05T00:56:00.468Z,56.50
2018-07-05T00:58:45.625Z,56.60
2018-07-05T01:01:30.935Z,57.20
2018-07-05T01:04:16.092Z,57.30
2018-07-05T01:07:01.271Z,57.30
2018-07-05T01:09:46.467Z,57.70
2018-07-05T01:12:31.559Z,57.20
2018-07-05T01:15:16.653Z,57.00
2018-07-05T01:18:01.835Z,57.00
2018-07-05T01:20:47.021Z,57.20
2018-07-05T01:23:31.986Z,57.20
2018-07-05T01:26:17.549Z,57.20
2018-07-05T01:29:02.534Z,57.90
2018-07-05T01:31:47.791Z,57.60
2018-07-05T01:34:32.962Z,57.40
2018-07-05T01:39:57.397Z,58.00
2018-07-05T01:42:42.494Z,57.40
2018-07-05T01:45:27.585Z,57.90
2018-07-05T01:48:12.755Z,57.90
2018-07-05T01:50:57.859Z,58.30
2018-07-05T01:53:43.197Z,58.50
2018-07-05T01:56:28.413Z,59.00
2018-07-05T01:59:13.584Z,59.40
2018-07-05T02:01:58.759Z,59.60
2018-07-05T02:04:44.127Z,59.80
2018-07-05T02:07:29.497Z,60.00
2018-07-05T02:10:14.696Z,59.80
2018-07-05T02:12:59.864Z,60.10
2018-07-05T02:15:45.221Z,60.30
2018-07-05T02:18:30.503Z,61.10
2018-07-05T02:21:15.746Z,60.90
2018-07-05T02:24:00.833Z,61.40
2018-07-05T02:26:46.068Z,61.80
2018-07-05T02:29:31.393Z,61.50
2018-07-05T02:32:16.512Z,60.90
2018-07-05T02:35:01.635Z,61.00
2018-07-05T02:37:52.625Z,62.00
2018-07-05T02:40:37.710Z,60.80
2018-07-05T02:43:22.880Z,61.10
2018-07-05T02:46:08.115Z,61.60
2018-07-05T02:48:53.284Z,61.50
2018-07-05T02:51:38.826Z,61.30
2018-07-05T02:54:24.163Z,60.90
2018-07-05T02:57:09.335Z,60.70
2018-07-05T02:59:54.436Z,60.40
2018-07-05T03:02:39.664Z,60.30
2018-07-05T03:05:24.972Z,60.70
2018-07-05T03:08:10.125Z,60.50
2018-07-05T03:10:55.278Z,60.50
2018-07-05T03:13:40.595Z,60.60
2018-07-05T03:16:25.888Z,60.60
2018-07-05T03:19:10.942Z,60.50
2018-07-05T03:21:56.165Z,60.30
2018-07-05T03:24:41.360Z,60.30
2018-07-05T03:27:26.619Z,60.40
2018-07-05T03:30:11.801Z,61.00
2018-07-05T03:32:57.002Z,61.00
2018-07-05T03:35:42.159Z,61.60
2018-07-05T03:38:27.264Z,62.30
2018-07-05T03:41:12.343Z,62.20
2018-07-05T03:43:57.695Z,62.10
2018-07-05T03:46:42.914Z,61.90
2018-07-05T03:49:27.940Z,62.40
2018-07-05T03:52:13.017Z,62.30
2018-07-05T03:54:58.107Z,62.70
2018-07-05T03:57:43.348Z,62.50
2018-07-05T04:00:28.692Z,62.10
2018-07-05T04:03:13.751Z,62.60
2018-07-05T04:05:58.902Z,63.10
2018-07-05T04:08:44.020Z,63.30
2018-07-05T04:11:29.219Z,62.80
2018-07-05T04:14:14.296Z,63.50
2018-07-05T04:16:59.412Z,63.60
2018-07-05T04:19:47.699Z,63.70
2018-07-05T04:22:32.823Z,63.90
2018-07-05T04:25:17.993Z,63.70
2018-07-05T04:28:03.199Z,64.30
2018-07-05T04:30:48.386Z,65.50
2018-07-05T04:33:33.603Z,65.40
2018-07-05T04:36:18.831Z,65.20
2018-07-05T04:39:04.027Z,64.80
2018-07-05T04:41:49.236Z,64.90
2018-07-05T04:44:34.367Z,64.90
2018-07-05T04:47:19.455Z,65.50
2018-07-05T04:50:04.689Z,65.40
2018-07-05T04:52:49.853Z,65.00
2018-07-05T04:55:35.043Z,66.00
2018-07-05T04:58:20.319Z,66.40
2018-07-05T05:01:05.425Z,66.30
2018-07-05T05:03:50.597Z,65.80
2018-07-05T05:06:35.717Z,65.90
2018-07-05T05:09:20.818Z,66.50
2018-07-05T05:12:05.998Z,66.10
2018-07-05T05:14:51.278Z,65.90
2018-07-05T05:17:36.475Z,66.10
2018-07-05T05:20:21.630Z,66.40
2018-07-05T05:23:06.957Z,66.40
2018-07-05T05:28:31.256Z,65.80
2018-07-05T05:31:28.507Z,66.00
2018-07-05T05:34:13.663Z,65.70
2018-07-05T05:36:58.896Z,65.60
2018-07-05T05:39:44.419Z,65.60
2018-07-05T05:42:29.631Z,65.50
2018-07-05T05:45:14.809Z,65.30
2018-07-05T05:47:59.908Z,65.50
2018-07-05T05:50:44.922Z,65.60
2018-07-05T05:53:30.133Z,65.80
2018-07-05T05:56:15.314Z,65.60
2018-07-05T05:59:00.325Z,65.30
2018-07-05T06:01:45.534Z,64.50
2018-07-05T06:04:30.590Z,64.00
2018-07-05T06:09:55.043Z,63.40
2018-07-05T06:12:40.271Z,63.20
2018-07-05T06:15:25.489Z,63.00
2018-07-05T06:18:10.561Z,63.10
2018-07-05T06:20:55.676Z,63.30
2018-07-05T06:23:40.783Z,63.00
2018-07-05T06:26:26.046Z,62.50
2018-07-05T06:29:11.182Z,62.40
2018-07-05T06:31:56.365Z,62.20
2018-07-05T06:34:41.411Z,61.80
2018-07-05T06:37:26.516Z,61.70
2018-07-05T06:40:11.709Z,61.10
2018-07-05T06:42:56.840Z,61.10
2018-07-05T06:45:42.213Z,60.50
2018-07-05T06:48:27.411Z,60.60
2018-07-05T06:51:12.551Z,60.60
2018-07-05T06:53:57.753Z,60.40
2018-07-05T06:56:42.932Z,60.20
2018-07-05T06:59:28.081Z,60.40
2018-07-05T07:02:13.457Z,60.40
2018-07-05T07:04:59.046Z,60.60
2018-07-05T07:07:44.255Z,60.80
2018-07-05T07:10:29.383Z,61.00
2018-07-05T07:13:14.663Z,61.20
2018-07-05T07:15:59.689Z,61.10
2018-07-05T07:21:24.119Z,61.20
2018-07-05T07:24:09.345Z,61.20
2018-07-05T07:26:54.393Z,60.80
2018-07-05T07:29:39.840Z,60.40
2018-07-05T07:32:24.985Z,60.20
2018-07-05T07:35:10.159Z,59.80
2018-07-05T07:37:55.310Z,60.00
2018-07-05T07:40:40.563Z,60.00
2018-07-05T07:43:13.151Z,60.20
2018-07-05T07:45:39.568Z,59.80
2018-07-05T07:48:05.976Z,59.60
2018-07-05T07:50:32.398Z,59.50
2018-07-05T07:52:58.779Z,58.10
2018-07-05T07:55:25.183Z,57.80
2018-07-05T07:57:51.598Z,57.60
2018-07-05T08:00:18.010Z,56.90
2018-07-05T08:02:44.390Z,55.90
2018-07-05T08:07:37.665Z,55.00
2018-07-05T08:10:04.089Z,55.30
2018-07-05T08:12:30.470Z,55.10
2018-07-05T08:14:56.888Z,55.20
2018-07-05T08:17:23.271Z,55.30
2018-07-05T08:19:50.709Z,55.40
2018-07-05T08:22:17.126Z,54.60
2018-07-05T08:24:43.536Z,54.80
2018-07-05T08:27:09.949Z,54.60
2018-07-05T08:29:36.341Z,53.70
2018-07-05T08:32:02.758Z,53.70
2018-07-05T08:34:29.140Z,52.30
2018-07-05T08:36:55.546Z,51.90
2018-07-05T08:39:21.993Z,51.00
2018-07-05T08:41:48.408Z,50.50
2018-07-05T08:44:15.007Z,49.90
2018-07-05T08:46:42.015Z,47.60
2018-07-05T08:49:08.403Z,48.40
2018-07-05T08:51:34.797Z,48.90
2018-07-05T08:54:01.218Z,48.90
2018-07-05T08:56:27.635Z,47.50
2018-07-05T08:58:54.143Z,47.10
2018-07-05T09:01:20.534Z,48.30
2018-07-05T09:03:47.067Z,47.40
2018-07-05T09:06:13.461Z,48.10
2018-07-05T09:08:39.872Z,48.10
2018-07-05T09:11:06.257Z,47.40
2018-07-05T09:13:32.675Z,47.00
2018-07-05T09:15:59.322Z,46.70
2018-07-05T09:18:25.724Z,47.40
2018-07-05T09:20:52.140Z,47.40
2018-07-05T09:23:18.585Z,47.70
2018-07-05T09:25:44.956Z,47.40
2018-07-05T09:28:11.351Z,46.90
2018-07-05T09:30:37.750Z,47.20
2018-07-05T09:33:04.159Z,47.20
2018-07-05T09:35:30.534Z,46.70
2018-07-05T09:37:56.921Z,46.90
2018-07-05T09:40:23.368Z,46.10
2018-07-05T09:42:49.753Z,45.50
2018-07-05T09:45:16.143Z,43.60
2018-07-05T09:47:42.541Z,42.30
2018-07-05T09:50:08.990Z,41.10
2018-07-05T09:52:35.492Z,40.00
2018-07-05T09:55:01.839Z,41.50
2018-07-05T09:59:56.389Z,42.50
2018-07-05T10:02:22.792Z,41.70
2018-07-05T10:04:49.225Z,41.40
2018-07-05T10:07:15.658Z,41.40
2018-07-05T10:09:42.047Z,41.30
2018-07-05T10:12:08.470Z,41.10
2018-07-05T10:14:34.980Z,39.80
2018-07-05T10:17:01.437Z,39.70
2018-07-05T10:19:27.893Z,38.40
2018-07-05T10:21:54.311Z,38.80
2018-07-05T10:24:20.717Z,38.40
2018-07-05T10:26:47.179Z,37.60
2018-07-05T10:29:26.217Z,37.50
2018-07-05T10:32:11.666Z,37.10
2018-07-05T10:34:44.251Z,37.40
2018-07-05T10:37:14.167Z,36.30
2018-07-05T10:39:40.700Z,35.70
2018-07-05T10:42:25.834Z,36.90
2018-07-05T10:45:11.878Z,36.90
2018-07-05T10:47:57.031Z,37.80
2018-07-05T10:50:42.132Z,37.40
2018-07-05T10:53:27.459Z,35.30
2018-07-05T10:56:12.625Z,36.00
2018-07-05T10:58:57.810Z,36.00
2018-07-05T11:01:43.114Z,35.40
2018-07-05T11:04:28.328Z,34.20
2018-07-05T11:07:13.571Z,33.80
2018-07-05T11:09:58.803Z,35.10
2018-07-05T11:12:44.099Z,35.40
2018-07-05T11:15:29.249Z,35.40
2018-07-05T11:18:14.471Z,35.40
2018-07-05T11:20:59.788Z,35.20
2018-07-05T11:23:44.935Z,35.10
2018-07-05T11:26:30.236Z,36.40
2018-07-05T11:29:15.411Z,37.70
2018-07-05T11:32:00.496Z,38.30
2018-07-05T11:34:45.661Z,38.20
2018-07-05T11:37:31.118Z,37.20
2018-07-05T11:40:16.377Z,37.70
2018-07-05T11:43:01.468Z,37.70
2018-07-05T11:45:46.753Z,37.80
2018-07-05T11:48:31.907Z,38.10
2018-07-05T11:51:17.101Z,38.60
2018-07-05T11:54:02.390Z,38.50
2018-07-05T11:56:47.574Z,38.20
2018-07-05T11:59:32.691Z,38.00
2018-07-05T12:02:17.847Z,38.10
2018-07-05T12:05:03.033Z,37.40
2018-07-05T12:07:48.519Z,38.10
2018-07-05T12:10:33.789Z,37.60
2018-07-05T12:13:19.507Z,37.70
2018-07-05T12:16:04.802Z,37.60
2018-07-05T12:18:49.920Z,37.40
2018-07-05T12:21:35.143Z,37.20
2018-07-05T12:24:20.353Z,37.40
2018-07-05T12:27:05.428Z,37.30
2018-07-05T12:29:50.618Z,37.50
2018-07-05T12:32:35.809Z,35.70
2018-07-05T12:35:20.870Z,35.50
2018-07-05T12:38:06.058Z,35.10
2018-07-05T12:40:51.480Z,32.40
2018-07-05T12:43:36.726Z,29.80
2018-07-05T12:46:21.830Z,30.00
2018-07-05T12:51:46.577Z,31.10
2018-07-05T12:54:31.648Z,30.80
2018-07-05T12:57:16.749Z,29.70
2018-07-05T13:00:01.837Z,29.30
2018-07-05T13:02:46.938Z,30.20
2018-07-05T13:05:32.214Z,30.60
2018-07-05T13:08:17.381Z,30.70
2018-07-05T13:11:02.500Z,30.60
2018-07-05T13:13:47.718Z,30.40
2018-07-05T13:16:32.812Z,30.80
2018-07-05T13:19:17.918Z,30.80
2018-07-05T13:22:03.156Z,30.20
2018-07-05T13:24:48.466Z,30.00
2018-07-05T13:27:33.614Z,29.40
2018-07-05T13:30:18.799Z,29.90
2018-07-05T13:33:04.019Z,29.60
2018-07-05T13:35:49.444Z,29.30
2018-07-05T13:38:34.733Z,28.40
2018-07-05T13:41:19.890Z,28.10
2018-07-05T13:44:05.153Z,28.00
2018-07-05T13:46:50.364Z,28.60
2018-07-05T13:49:35.626Z,28.20
2018-07-05T13:52:20.789Z,28.40
2018-07-05T13:55:06.037Z,28.70
2018-07-05T13:57:51.335Z,29.00
2018-07-05T14:00:36.451Z,29.30
2018-07-05T14:03:21.601Z,29.40
2018-07-05T14:06:06.754Z,29.10
2018-07-05T14:08:51.922Z,29.50
2018-07-05T14:11:37.179Z,29.10
2018-07-05T14:14:22.268Z,29.90
2018-07-05T14:17:07.532Z,30.00
2018-07-05T14:22:32.172Z,30.00
2018-07-05T14:25:17.391Z,30.10
2018-07-05T14:28:02.604Z,30.40
2018-07-05T14:30:47.756Z,30.60
2018-07-05T14:33:33.191Z,30.40
2018-07-05T14:36:18.540Z,30.70
2018-07-05T14:39:04.879Z,31.30
2018-07-05T14:41:50.248Z,31.50
2018-07-05T14:44:35.329Z,31.80
2018-07-05T14:47:20.694Z,32.00
2018-07-05T14:50:05.886Z,32.20
2018-07-05T14:52:50.967Z,32.60
2018-07-05T14:55:36.189Z,32.70
2018-07-05T14:58:21.283Z,32.70
2018-07-05T15:01:06.446Z,32.40
2018-07-05T15:03:51.674Z,32.80
2018-07-05T15:06:36.750Z,33.40
2018-07-05T15:09:21.903Z,33.40
2018-07-05T15:12:07.165Z,33.30
2018-07-05T15:14:52.437Z,33.80
2018-07-05T15:17:37.620Z,33.40
2018-07-05T15:20:22.874Z,33.20
2018-07-05T15:23:08.077Z,32.60
2018-07-05T15:25:53.284Z,32.80
2018-07-05T15:28:38.548Z,32.40
2018-07-05T15:31:23.741Z,33.00
2018-07-05T15:34:08.994Z,32.90
2018-07-05T15:36:54.323Z,33.10
2018-07-05T15:39:39.704Z,33.30
2018-07-05T15:42:24.768Z,33.80
2018-07-05T15:45:09.940Z,33.60
2018-07-05T15:47:55.204Z,33.80
2018-07-05T15:50:40.190Z,33.20
2018-07-05T15:53:25.425Z,33.40
2018-07-05T15:56:10.626Z,33.10
2018-07-05T15:58:55.960Z,32.60
2018-07-05T16:01:41.049Z,32.40
2018-07-05T16:04:26.283Z,32.60
2018-07-05T16:07:11.360Z,32.60
2018-07-05T16:09:56.501Z,33.50
2018-07-05T16:12:41.749Z,33.00
2018-07-05T16:15:26.935Z,33.30
2018-07-05T16:18:12.326Z,33.00
2018-07-05T16:20:57.755Z,33.20
2018-07-05T16:23:42.893Z,33.30
2018-07-05T16:26:28.021Z,33.50
2018-07-05T16:29:13.278Z,33.60
2018-07-05T16:31:58.491Z,34.00
2018-07-05T16:37:22.952Z,35.30
2018-07-05T16:40:08.162Z,35.70
2018-07-05T16:42:53.334Z,36.10
2018-07-05T16:45:38.592Z,36.50
2018-07-05T16:48:23.843Z,36.60
2018-07-05T16:51:09.022Z,36.50
2018-07-05T16:53:54.342Z,36.70
2018-07-05T16:56:39.474Z,37.20
2018-07-05T16:59:24.697Z,37.40
2018-07-05T17:02:09.766Z,37.70
2018-07-05T17:04:55.146Z,37.90
2018-07-05T17:07:40.406Z,38.20
2018-07-05T17:10:25.715Z,38.30
2018-07-05T17:13:10.958Z,38.50
2018-07-05T17:15:56.193Z,38.10
2018-07-05T17:18:41.259Z,37.60
2018-07-05T17:21:26.419Z,37.40
2018-07-05T17:24:11.399Z,36.70
2018-07-05T17:26:56.611Z,36.10
2018-07-05T17:29:41.774Z,35.70
2018-07-05T17:32:26.819Z,35.70
2018-07-05T17:35:12.124Z,35.70
2018-07-05T17:37:57.632Z,36.10
2018-07-05T17:40:42.951Z,36.10
2018-07-05T17:43:28.034Z,36.00
2018-07-05T17:46:13.376Z,36.30
2018-07-05T17:48:58.592Z,36.50
2018-07-05T17:51:43.806Z,37.30
2018-07-05T17:54:29.109Z,36.90
2018-07-05T17:57:14.353Z,37.00
2018-07-05T17:59:59.615Z,37.10
2018-07-05T18:05:24.270Z,37.40
2018-07-05T18:08:09.473Z,37.50
2018-07-05T18:13:33.978Z,37.70
2018-07-05T18:16:19.405Z,37.70
2018-07-05T18:19:04.509Z,37.80
2018-07-05T18:21:49.772Z,38.00
2018-07-05T18:24:34.869Z,38.10
2018-07-05T18:27:19.981Z,37.90
2018-07-05T18:30:05.281Z,38.10
2018-07-05T18:32:50.513Z,38.30
2018-07-05T18:35:35.721Z,38.40
2018-07-05T18:38:20.887Z,38.40
2018-07-05T18:41:06.096Z,38.50
2018-07-05T18:43:51.179Z,38.60
2018-07-05T18:49:15.730Z,39.10
2018-07-05T18:52:00.728Z,39.10
2018-07-05T18:54:45.875Z,39.40
2018-07-05T18:57:30.971Z,39.50
2018-07-05T19:00:16.049Z,39.80
2018-07-05T19:03:01.192Z,40.20
2018-07-05T19:05:46.360Z,40.60
2018-07-05T19:08:31.562Z,40.60
2018-07-05T19:11:16.591Z,41.70
2018-07-05T19:14:01.853Z,41.20
2018-07-05T19:16:47.091Z,41.50
2018-07-05T19:19:32.292Z,41.80
2018-07-05T19:22:17.338Z,41.90
2018-07-05T19:25:02.575Z,42.20
2018-07-05T19:27:47.865Z,42.70
2018-07-05T19:30:33.048Z,43.30
2018-07-05T19:33:18.221Z,43.80
2018-07-05T19:36:03.378Z,44.50
2018-07-05T19:38:48.463Z,45.10
2018-07-05T19:41:33.702Z,45.60
2018-07-05T19:44:19.075Z,45.90
2018-07-05T19:47:04.278Z,47.00
2018-07-05T19:49:49.503Z,47.20
2018-07-05T19:55:14.072Z,47.80
2018-07-05T19:57:59.147Z,48.40
2018-07-05T20:00:44.381Z,49.20
2018-07-05T20:03:29.575Z,49.20
2018-07-05T20:06:14.992Z,49.70
2018-07-05T20:09:00.100Z,49.80
2018-07-05T20:11:51.655Z,49.90
2018-07-05T20:14:36.935Z,50.80
2018-07-05T20:17:22.077Z,50.80
2018-07-05T20:20:07.133Z,50.90
2018-07-05T20:22:52.189Z,51.30
2018-07-05T20:25:37.367Z,51.00
2018-07-05T20:28:22.351Z,51.40
2018-07-05T20:31:07.521Z,51.40
2018-07-05T20:33:52.688Z,52.30
2018-07-05T20:36:37.793Z,52.00
2018-07-05T20:39:22.947Z,51.80
2018-07-05T20:42:08.113Z,52.30
2018-07-05T20:44:53.295Z,53.00
2018-07-05T20:47:38.419Z,52.90
2018-07-05T20:50:23.578Z,53.10
2018-07-05T20:53:08.720Z,53.10
2018-07-05T20:55:53.872Z,53.20
2018-07-05T20:58:39.485Z,53.80
2018-07-05T21:01:24.724Z,54.40
2018-07-05T21:04:09.935Z,54.20
2018-07-05T21:06:55.239Z,54.30
2018-07-05T21:09:40.240Z,54.90
2018-07-05T21:12:25.414Z,54.90
2018-07-05T21:15:10.640Z,54.40
2018-07-05T21:17:56.164Z,54.80
2018-07-05T21:20:41.283Z,54.70
2018-07-05T21:23:26.811Z,55.30
2018-07-05T21:26:11.920Z,55.10
2018-07-05T21:28:57.053Z,55.60
2018-07-05T21:31:42.267Z,55.40
2018-07-05T21:37:06.940Z,55.60
2018-07-05T21:39:52.113Z,56.10
2018-07-05T21:42:37.406Z,56.10
2018-07-05T21:45:22.583Z,56.40
2018-07-05T21:48:07.833Z,55.90
2018-07-05T21:50:52.939Z,56.00
2018-07-05T21:53:46.768Z,56.10
2018-07-05T21:56:32.106Z,56.00
2018-07-05T21:59:17.135Z,55.70
2018-07-05T22:02:02.501Z,56.10
2018-07-05T22:04:47.583Z,56.70
2018-07-05T22:07:32.839Z,56.70
2018-07-05T22:10:18.071Z,56.40
2018-07-05T22:13:03.140Z,57.70
2018-07-05T22:15:48.182Z,57.00
2018-07-05T22:18:39.284Z,57.00
2018-07-05T22:21:24.136Z,57.20
2018-07-05T22:24:15.230Z,57.20
2018-07-05T22:27:00.368Z,57.60
2018-07-05T22:32:30.504Z,57.90
2018-07-05T22:35:15.652Z,58.60
2018-07-05T22:38:01.097Z,58.70
2018-07-05T22:40:46.294Z,58.40
2018-07-05T22:43:31.551Z,58.50
2018-07-05T22:46:16.843Z,58.10
2018-07-05T22:49:01.916Z,58.70
2018-07-05T22:51:47.276Z,58.20
2018-07-05T22:54:32.342Z,58.80
2018-07-05T22:57:17.674Z,59.00
2018-07-05T23:00:03.032Z,59.20
2018-07-05T23:02:48.313Z,58.90
2018-07-05T23:05:33.463Z,59.30
2018-07-05T23:08:18.631Z,59.50
2018-07-05T23:11:03.856Z,59.10
2018-07-05T23:13:49.356Z,58.90
2018-07-05T23:16:34.445Z,58.90
2018-07-05T23:19:19.625Z,58.70
2018-07-05T23:22:04.715Z,59.40
2018-07-05T23:24:49.770Z,58.70
2018-07-05T23:27:34.916Z,59.00
2018-07-05T23:32:59.694Z,59.00
2018-07-05T23:35:44.805Z,59.40
2018-07-05T23:38:29.890Z,59.00
2018-07-05T23:41:15.003Z,59.00
2018-07-05T23:44:00.135Z,59.10
2018-07-05T23:46:45.182Z,59.60
2018-07-05T23:49:30.321Z,59.90
2018-07-05T23:52:15.419Z,60.40
2018-07-05T23:55:00.747Z,60.60
2018-07-05T23:57:45.886Z,60.50
